sensor_id;sensor_type;location;lat;lon;timestamp;temperature;humidity
19044;DHT22;9654;52.302;8.120;2023-07-20T00:01:45;16.30;99.90
19044;DHT22;9654;52.302;8.120;2023-07-20T00:04:13;16.20;99.90
19044;DHT22;9654;52.302;8.120;2023-07-20T00:06:40;16.20;99.90
19044;DHT22;9654;52.302;8.120;2023-07-20T00:09:06;16.30;99.90
19044;DHT22;9654;52.302;8.120;2023-07-20T00:11:36;16.20;99.90
19044;DHT22;9654;52.302;8.120;2023-07-20T00:14:03;16.20;99.90
19044;DHT22;9654;52.302;8.120;2023-07-20T00:16:31;16.20;99.90
19044;DHT22;9654;52.302;8.120;2023-07-20T00:18:57;16.20;99.90
19044;DHT22;9654;52.302;8.120;2023-07-20T00:21:25;16.20;99.90
19044;DHT22;9654;52.302;8.120;2023-07-20T00:23:52;16.20;99.90
19044;DHT22;9654;52.302;8.120;2023-07-20T00:26:18;16.20;99.90
19044;DHT22;9654;52.302;8.120;2023-07-20T00:28:48;16.20;99.90
19044;DHT22;9654;52.302;8.120;2023-07-20T00:31:15;16.20;99.90
19044;DHT22;9654;52.302;8.120;2023-07-20T00:33:42;16.20;99.90
19044;DHT22;9654;52.302;8.120;2023-07-20T00:36:08;16.20;99.90
19044;DHT22;9654;52.302;8.120;2023-07-20T00:38:35;16.20;99.90
19044;DHT22;9654;52.302;8.120;2023-07-20T00:41:02;16.20;99.90
19044;DHT22;9654;52.302;8.120;2023-07-20T00:43:29;16.20;99.90
19044;DHT22;9654;52.302;8.120;2023-07-20T00:45:57;16.30;99.90
19044;DHT22;9654;52.302;8.120;2023-07-20T00:48:24;16.30;99.90
19044;DHT22;9654;52.302;8.120;2023-07-20T00:50:51;16.20;99.90
19044;DHT22;9654;52.302;8.120;2023-07-20T00:53:18;16.20;99.90
19044;DHT22;9654;52.302;8.120;2023-07-20T00:55:46;16.20;99.90
19044;DHT22;9654;52.302;8.120;2023-07-20T00:58:12;16.20;99.90
19044;DHT22;9654;52.302;8.120;2023-07-20T01:00:39;16.30;99.90
19044;DHT22;9654;52.302;8.120;2023-07-20T01:03:07;16.20;99.90
19044;DHT22;9654;52.302;8.120;2023-07-20T01:05:40;16.20;99.90
19044;DHT22;9654;52.302;8.120;2023-07-20T01:08:13;16.20;99.90
19044;DHT22;9654;52.302;8.120;2023-07-20T01:10:46;16.20;99.90
19044;DHT22;9654;52.302;8.120;2023-07-20T01:13:17;16.20;99.90
19044;DHT22;9654;52.302;8.120;2023-07-20T01:15:49;16.20;99.90
19044;DHT22;9654;52.302;8.120;2023-07-20T01:18:18;16.10;99.90
19044;DHT22;9654;52.302;8.120;2023-07-20T01:20:45;16.10;99.90
19044;DHT22;9654;52.302;8.120;2023-07-20T01:26:38;16.00;99.90
19044;DHT22;9654;52.302;8.120;2023-07-20T01:29:17;15.90;99.90
19044;DHT22;9654;52.302;8.120;2023-07-20T01:31:52;15.90;99.90
19044;DHT22;9654;52.302;8.120;2023-07-20T01:34:20;15.90;99.90
19044;DHT22;9654;52.302;8.120;2023-07-20T01:36:50;15.80;99.90
19044;DHT22;9654;52.302;8.120;2023-07-20T01:39:19;15.80;99.90
19044;DHT22;9654;52.302;8.120;2023-07-20T01:41:47;15.80;99.90
19044;DHT22;9654;52.302;8.120;2023-07-20T01:44:14;15.80;99.90
19044;DHT22;9654;52.302;8.120;2023-07-20T01:46:40;15.80;99.90
19044;DHT22;9654;52.302;8.120;2023-07-20T01:49:08;15.80;99.90
19044;DHT22;9654;52.302;8.120;2023-07-20T01:51:35;15.80;99.90
19044;DHT22;9654;52.302;8.120;2023-07-20T01:54:02;15.80;99.90
19044;DHT22;9654;52.302;8.120;2023-07-20T01:56:29;15.80;99.90
19044;DHT22;9654;52.302;8.120;2023-07-20T01:58:56;15.70;99.90
19044;DHT22;9654;52.302;8.120;2023-07-20T02:01:22;15.60;99.90
19044;DHT22;9654;52.302;8.120;2023-07-20T02:03:49;15.60;99.90
19044;DHT22;9654;52.302;8.120;2023-07-20T02:06:17;15.50;99.90
19044;DHT22;9654;52.302;8.120;2023-07-20T02:08:44;15.40;99.90
19044;DHT22;9654;52.302;8.120;2023-07-20T02:11:11;15.30;99.90
19044;DHT22;9654;52.302;8.120;2023-07-20T02:13:38;15.20;99.90
19044;DHT22;9654;52.302;8.120;2023-07-20T02:16:04;15.10;99.90
19044;DHT22;9654;52.302;8.120;2023-07-20T02:18:31;15.00;99.90
19044;DHT22;9654;52.302;8.120;2023-07-20T02:20:58;15.00;99.90
19044;DHT22;9654;52.302;8.120;2023-07-20T02:23:26;14.90;99.90
19044;DHT22;9654;52.302;8.120;2023-07-20T02:25:53;14.90;99.90
19044;DHT22;9654;52.302;8.120;2023-07-20T02:28:20;14.90;99.90
19044;DHT22;9654;52.302;8.120;2023-07-20T02:30:47;14.80;99.90
19044;DHT22;9654;52.302;8.120;2023-07-20T02:33:26;14.80;99.90
19044;DHT22;9654;52.302;8.120;2023-07-20T02:35:52;14.70;99.90
19044;DHT22;9654;52.302;8.120;2023-07-20T02:38:19;14.80;99.90
19044;DHT22;9654;52.302;8.120;2023-07-20T02:40:47;14.70;99.90
19044;DHT22;9654;52.302;8.120;2023-07-20T02:43:14;14.70;99.90
19044;DHT22;9654;52.302;8.120;2023-07-20T02:45:41;14.70;99.90
19044;DHT22;9654;52.302;8.120;2023-07-20T02:48:08;14.70;99.90
19044;DHT22;9654;52.302;8.120;2023-07-20T02:50:35;14.60;99.90
19044;DHT22;9654;52.302;8.120;2023-07-20T02:53:02;14.60;99.90
19044;DHT22;9654;52.302;8.120;2023-07-20T02:55:28;14.60;99.90
19044;DHT22;9654;52.302;8.120;2023-07-20T02:57:57;14.60;99.90
19044;DHT22;9654;52.302;8.120;2023-07-20T03:00:23;14.50;99.90
19044;DHT22;9654;52.302;8.120;2023-07-20T03:02:51;14.50;99.90
19044;DHT22;9654;52.302;8.120;2023-07-20T03:05:21;14.50;99.90
19044;DHT22;9654;52.302;8.120;2023-07-20T03:07:48;14.50;99.90
19044;DHT22;9654;52.302;8.120;2023-07-20T03:10:15;14.50;99.90
19044;DHT22;9654;52.302;8.120;2023-07-20T03:12:42;14.40;99.90
19044;DHT22;9654;52.302;8.120;2023-07-20T03:15:11;14.40;99.90
19044;DHT22;9654;52.302;8.120;2023-07-20T03:17:37;14.40;99.90
19044;DHT22;9654;52.302;8.120;2023-07-20T03:20:05;14.40;99.90
19044;DHT22;9654;52.302;8.120;2023-07-20T03:22:35;14.40;99.90
19044;DHT22;9654;52.302;8.120;2023-07-20T03:25:03;14.50;99.90
19044;DHT22;9654;52.302;8.120;2023-07-20T03:27:30;14.40;99.90
19044;DHT22;9654;52.302;8.120;2023-07-20T03:29:57;14.40;99.90
19044;DHT22;9654;52.302;8.120;2023-07-20T03:32:25;14.40;99.90
19044;DHT22;9654;52.302;8.120;2023-07-20T03:34:52;14.40;99.90
19044;DHT22;9654;52.302;8.120;2023-07-20T03:37:19;14.40;99.90
19044;DHT22;9654;52.302;8.120;2023-07-20T03:39:46;14.40;99.90
19044;DHT22;9654;52.302;8.120;2023-07-20T03:42:15;14.40;99.90
19044;DHT22;9654;52.302;8.120;2023-07-20T03:44:42;14.40;99.90
19044;DHT22;9654;52.302;8.120;2023-07-20T03:47:09;14.40;99.90
19044;DHT22;9654;52.302;8.120;2023-07-20T03:49:37;14.30;99.90
19044;DHT22;9654;52.302;8.120;2023-07-20T03:52:04;14.30;99.90
19044;DHT22;9654;52.302;8.120;2023-07-20T03:54:31;14.30;99.90
19044;DHT22;9654;52.302;8.120;2023-07-20T03:56:58;14.30;99.90
19044;DHT22;9654;52.302;8.120;2023-07-20T03:59:26;14.40;99.90
19044;DHT22;9654;52.302;8.120;2023-07-20T04:01:53;14.40;99.90
19044;DHT22;9654;52.302;8.120;2023-07-20T04:04:19;14.40;99.90
19044;DHT22;9654;52.302;8.120;2023-07-20T04:06:47;14.40;99.90
19044;DHT22;9654;52.302;8.120;2023-07-20T04:09:14;14.40;99.90
19044;DHT22;9654;52.302;8.120;2023-07-20T04:11:41;14.40;99.90
19044;DHT22;9654;52.302;8.120;2023-07-20T04:14:08;14.30;99.90
19044;DHT22;9654;52.302;8.120;2023-07-20T04:16:34;14.30;99.90
19044;DHT22;9654;52.302;8.120;2023-07-20T04:19:02;14.30;99.90
19044;DHT22;9654;52.302;8.120;2023-07-20T04:21:29;14.30;99.90
19044;DHT22;9654;52.302;8.120;2023-07-20T04:23:57;14.30;99.90
19044;DHT22;9654;52.302;8.120;2023-07-20T04:26:23;14.30;99.90
19044;DHT22;9654;52.302;8.120;2023-07-20T04:28:50;14.30;99.90
19044;DHT22;9654;52.302;8.120;2023-07-20T04:31:18;14.30;99.90
19044;DHT22;9654;52.302;8.120;2023-07-20T04:33:45;14.40;99.90
19044;DHT22;9654;52.302;8.120;2023-07-20T04:36:11;14.30;99.90
19044;DHT22;9654;52.302;8.120;2023-07-20T04:38:40;14.40;99.90
19044;DHT22;9654;52.302;8.120;2023-07-20T04:41:09;14.40;99.90
19044;DHT22;9654;52.302;8.120;2023-07-20T04:43:41;14.40;99.90
19044;DHT22;9654;52.302;8.120;2023-07-20T04:46:08;14.50;99.90
19044;DHT22;9654;52.302;8.120;2023-07-20T04:48:34;14.50;99.90
19044;DHT22;9654;52.302;8.120;2023-07-20T04:51:02;14.50;99.90
19044;DHT22;9654;52.302;8.120;2023-07-20T04:53:29;14.50;99.90
19044;DHT22;9654;52.302;8.120;2023-07-20T04:55:56;14.50;99.90
19044;DHT22;9654;52.302;8.120;2023-07-20T04:58:24;14.50;99.90
19044;DHT22;9654;52.302;8.120;2023-07-20T05:00:51;14.50;99.90
19044;DHT22;9654;52.302;8.120;2023-07-20T05:03:18;14.60;99.90
19044;DHT22;9654;52.302;8.120;2023-07-20T05:05:46;14.60;99.90
19044;DHT22;9654;52.302;8.120;2023-07-20T05:08:12;14.70;99.90
19044;DHT22;9654;52.302;8.120;2023-07-20T05:10:39;14.70;99.90
19044;DHT22;9654;52.302;8.120;2023-07-20T05:13:06;14.70;99.90
19044;DHT22;9654;52.302;8.120;2023-07-20T05:15:34;14.80;99.90
19044;DHT22;9654;52.302;8.120;2023-07-20T05:18:01;14.80;99.90
19044;DHT22;9654;52.302;8.120;2023-07-20T05:20:28;14.90;99.90
19044;DHT22;9654;52.302;8.120;2023-07-20T05:22:54;14.80;99.90
19044;DHT22;9654;52.302;8.120;2023-07-20T05:25:21;14.90;99.90
19044;DHT22;9654;52.302;8.120;2023-07-20T05:27:48;14.90;99.90
19044;DHT22;9654;52.302;8.120;2023-07-20T05:30:16;15.00;99.90
19044;DHT22;9654;52.302;8.120;2023-07-20T05:32:44;15.00;99.90
19044;DHT22;9654;52.302;8.120;2023-07-20T05:35:13;15.00;99.90
19044;DHT22;9654;52.302;8.120;2023-07-20T05:37:41;14.90;99.90
19044;DHT22;9654;52.302;8.120;2023-07-20T05:40:08;14.90;99.90
19044;DHT22;9654;52.302;8.120;2023-07-20T05:42:37;14.90;99.90
19044;DHT22;9654;52.302;8.120;2023-07-20T05:45:05;15.00;99.90
19044;DHT22;9654;52.302;8.120;2023-07-20T05:47:32;15.00;99.90
19044;DHT22;9654;52.302;8.120;2023-07-20T05:50:00;15.00;99.90
19044;DHT22;9654;52.302;8.120;2023-07-20T05:52:29;15.00;99.90
19044;DHT22;9654;52.302;8.120;2023-07-20T05:54:55;15.00;99.90
19044;DHT22;9654;52.302;8.120;2023-07-20T05:57:22;15.10;99.90
19044;DHT22;9654;52.302;8.120;2023-07-20T05:59:49;15.10;99.90
19044;DHT22;9654;52.302;8.120;2023-07-20T06:02:16;15.10;99.90
19044;DHT22;9654;52.302;8.120;2023-07-20T06:04:43;15.10;99.90
19044;DHT22;9654;52.302;8.120;2023-07-20T06:07:11;15.20;99.90
19044;DHT22;9654;52.302;8.120;2023-07-20T06:09:38;15.30;99.90
19044;DHT22;9654;52.302;8.120;2023-07-20T06:12:05;15.40;99.90
19044;DHT22;9654;52.302;8.120;2023-07-20T06:14:32;15.50;99.90
19044;DHT22;9654;52.302;8.120;2023-07-20T06:16:59;15.40;99.90
19044;DHT22;9654;52.302;8.120;2023-07-20T06:19:26;15.50;99.90
19044;DHT22;9654;52.302;8.120;2023-07-20T06:21:53;15.50;99.90
19044;DHT22;9654;52.302;8.120;2023-07-20T06:24:21;15.60;99.90
19044;DHT22;9654;52.302;8.120;2023-07-20T06:26:48;15.50;99.90
19044;DHT22;9654;52.302;8.120;2023-07-20T06:29:15;15.60;99.90
19044;DHT22;9654;52.302;8.120;2023-07-20T06:31:41;15.60;99.90
19044;DHT22;9654;52.302;8.120;2023-07-20T06:34:08;15.60;99.90
19044;DHT22;9654;52.302;8.120;2023-07-20T06:36:35;15.60;99.90
19044;DHT22;9654;52.302;8.120;2023-07-20T06:39:02;15.60;99.90
19044;DHT22;9654;52.302;8.120;2023-07-20T06:41:30;15.70;99.90
19044;DHT22;9654;52.302;8.120;2023-07-20T06:43:57;15.70;99.90
19044;DHT22;9654;52.302;8.120;2023-07-20T06:46:24;15.90;99.90
19044;DHT22;9654;52.302;8.120;2023-07-20T06:48:51;16.00;99.90
19044;DHT22;9654;52.302;8.120;2023-07-20T06:51:19;16.10;99.90
19044;DHT22;9654;52.302;8.120;2023-07-20T06:53:45;16.10;99.90
19044;DHT22;9654;52.302;8.120;2023-07-20T06:56:12;16.20;99.90
19044;DHT22;9654;52.302;8.120;2023-07-20T06:58:40;16.30;99.90
19044;DHT22;9654;52.302;8.120;2023-07-20T07:01:07;16.40;99.90
19044;DHT22;9654;52.302;8.120;2023-07-20T07:03:34;16.50;99.90
19044;DHT22;9654;52.302;8.120;2023-07-20T07:06:02;16.70;99.90
19044;DHT22;9654;52.302;8.120;2023-07-20T07:08:29;16.70;99.90
19044;DHT22;9654;52.302;8.120;2023-07-20T07:10:56;16.90;99.90
19044;DHT22;9654;52.302;8.120;2023-07-20T07:13:23;17.00;99.90
19044;DHT22;9654;52.302;8.120;2023-07-20T07:15:51;17.20;99.90
19044;DHT22;9654;52.302;8.120;2023-07-20T07:18:18;17.50;99.90
19044;DHT22;9654;52.302;8.120;2023-07-20T07:20:51;17.60;99.90
19044;DHT22;9654;52.302;8.120;2023-07-20T07:23:18;17.50;99.90
19044;DHT22;9654;52.302;8.120;2023-07-20T07:25:45;17.30;99.90
19044;DHT22;9654;52.302;8.120;2023-07-20T07:28:12;17.20;99.90
19044;DHT22;9654;52.302;8.120;2023-07-20T07:30:39;17.20;99.90
19044;DHT22;9654;52.302;8.120;2023-07-20T07:33:07;17.20;99.90
19044;DHT22;9654;52.302;8.120;2023-07-20T07:35:35;17.40;99.90
19044;DHT22;9654;52.302;8.120;2023-07-20T07:38:02;17.50;99.90
19044;DHT22;9654;52.302;8.120;2023-07-20T07:40:28;17.60;99.90
19044;DHT22;9654;52.302;8.120;2023-07-20T07:42:55;17.80;99.90
19044;DHT22;9654;52.302;8.120;2023-07-20T07:45:22;18.10;99.90
19044;DHT22;9654;52.302;8.120;2023-07-20T07:47:49;18.20;99.90
19044;DHT22;9654;52.302;8.120;2023-07-20T07:50:17;18.20;99.90
19044;DHT22;9654;52.302;8.120;2023-07-20T07:52:44;18.20;99.90
19044;DHT22;9654;52.302;8.120;2023-07-20T07:55:10;18.10;99.90
19044;DHT22;9654;52.302;8.120;2023-07-20T07:57:37;18.10;99.90
19044;DHT22;9654;52.302;8.120;2023-07-20T08:00:05;18.40;99.90
19044;DHT22;9654;52.302;8.120;2023-07-20T08:02:36;18.50;99.90
19044;DHT22;9654;52.302;8.120;2023-07-20T08:05:03;18.50;99.90
19044;DHT22;9654;52.302;8.120;2023-07-20T08:07:31;18.40;99.90
19044;DHT22;9654;52.302;8.120;2023-07-20T08:09:58;18.40;99.90
19044;DHT22;9654;52.302;8.120;2023-07-20T08:12:26;18.50;99.90
19044;DHT22;9654;52.302;8.120;2023-07-20T08:14:53;18.50;99.90
19044;DHT22;9654;52.302;8.120;2023-07-20T08:17:20;18.40;99.90
19044;DHT22;9654;52.302;8.120;2023-07-20T08:19:46;18.30;99.90
19044;DHT22;9654;52.302;8.120;2023-07-20T08:22:13;18.10;99.90
19044;DHT22;9654;52.302;8.120;2023-07-20T08:24:43;17.90;99.90
19044;DHT22;9654;52.302;8.120;2023-07-20T08:27:10;18.00;99.90
19044;DHT22;9654;52.302;8.120;2023-07-20T08:29:37;18.30;99.90
19044;DHT22;9654;52.302;8.120;2023-07-20T08:32:05;18.60;99.90
19044;DHT22;9654;52.302;8.120;2023-07-20T08:34:32;18.90;99.90
19044;DHT22;9654;52.302;8.120;2023-07-20T08:36:59;19.20;99.90
19044;DHT22;9654;52.302;8.120;2023-07-20T08:39:26;19.60;99.90
19044;DHT22;9654;52.302;8.120;2023-07-20T08:41:55;19.30;99.90
19044;DHT22;9654;52.302;8.120;2023-07-20T08:44:25;19.00;99.90
19044;DHT22;9654;52.302;8.120;2023-07-20T08:46:53;18.90;99.90
19044;DHT22;9654;52.302;8.120;2023-07-20T08:49:20;19.10;99.90
19044;DHT22;9654;52.302;8.120;2023-07-20T08:51:48;19.40;99.90
19044;DHT22;9654;52.302;8.120;2023-07-20T08:54:16;19.70;99.90
19044;DHT22;9654;52.302;8.120;2023-07-20T08:56:45;19.80;99.90
19044;DHT22;9654;52.302;8.120;2023-07-20T08:59:17;19.90;99.90
19044;DHT22;9654;52.302;8.120;2023-07-20T09:01:44;20.20;99.90
19044;DHT22;9654;52.302;8.120;2023-07-20T09:04:12;20.60;99.90
19044;DHT22;9654;52.302;8.120;2023-07-20T09:06:39;20.90;99.90
19044;DHT22;9654;52.302;8.120;2023-07-20T09:09:06;20.90;99.90
19044;DHT22;9654;52.302;8.120;2023-07-20T09:11:33;20.50;99.90
19044;DHT22;9654;52.302;8.120;2023-07-20T09:14:04;20.00;99.90
19044;DHT22;9654;52.302;8.120;2023-07-20T09:16:46;19.90;99.90
19044;DHT22;9654;52.302;8.120;2023-07-20T09:19:14;20.00;99.90
19044;DHT22;9654;52.302;8.120;2023-07-20T09:21:44;20.40;99.90
19044;DHT22;9654;52.302;8.120;2023-07-20T09:24:11;20.80;99.90
19044;DHT22;9654;52.302;8.120;2023-07-20T09:26:41;20.90;99.90
19044;DHT22;9654;52.302;8.120;2023-07-20T09:29:09;20.80;99.90
19044;DHT22;9654;52.302;8.120;2023-07-20T09:31:38;20.50;99.90
19044;DHT22;9654;52.302;8.120;2023-07-20T09:34:05;20.40;99.90
19044;DHT22;9654;52.302;8.120;2023-07-20T09:36:34;20.50;99.90
19044;DHT22;9654;52.302;8.120;2023-07-20T09:39:01;20.60;99.90
19044;DHT22;9654;52.302;8.120;2023-07-20T09:41:29;20.70;99.90
19044;DHT22;9654;52.302;8.120;2023-07-20T09:43:56;21.10;99.90
19044;DHT22;9654;52.302;8.120;2023-07-20T09:46:23;21.30;99.90
19044;DHT22;9654;52.302;8.120;2023-07-20T09:48:54;21.30;99.90
19044;DHT22;9654;52.302;8.120;2023-07-20T09:51:22;21.10;99.90
19044;DHT22;9654;52.302;8.120;2023-07-20T09:53:49;21.00;99.90
19044;DHT22;9654;52.302;8.120;2023-07-20T09:56:21;21.30;99.90
19044;DHT22;9654;52.302;8.120;2023-07-20T09:58:48;21.10;99.90
19044;DHT22;9654;52.302;8.120;2023-07-20T10:01:19;20.70;99.90
19044;DHT22;9654;52.302;8.120;2023-07-20T10:03:47;20.70;99.90
19044;DHT22;9654;52.302;8.120;2023-07-20T10:06:20;20.90;99.90
19044;DHT22;9654;52.302;8.120;2023-07-20T10:08:53;21.20;99.90
19044;DHT22;9654;52.302;8.120;2023-07-20T10:11:22;21.70;99.90
19044;DHT22;9654;52.302;8.120;2023-07-20T10:13:53;21.90;99.90
19044;DHT22;9654;52.302;8.120;2023-07-20T10:16:27;21.90;99.90
19044;DHT22;9654;52.302;8.120;2023-07-20T10:19:02;21.80;99.90
19044;DHT22;9654;52.302;8.120;2023-07-20T10:21:31;22.00;99.90
19044;DHT22;9654;52.302;8.120;2023-07-20T10:23:59;22.10;99.90
19044;DHT22;9654;52.302;8.120;2023-07-20T10:26:27;22.40;99.90
19044;DHT22;9654;52.302;8.120;2023-07-20T10:28:55;22.90;99.90
19044;DHT22;9654;52.302;8.120;2023-07-20T10:31:24;23.10;99.90
19044;DHT22;9654;52.302;8.120;2023-07-20T10:33:52;23.10;99.90
19044;DHT22;9654;52.302;8.120;2023-07-20T10:36:24;23.00;99.90
19044;DHT22;9654;52.302;8.120;2023-07-20T10:38:54;22.40;99.90
19044;DHT22;9654;52.302;8.120;2023-07-20T10:41:27;22.70;99.90
19044;DHT22;9654;52.302;8.120;2023-07-20T10:43:58;22.70;99.90
19044;DHT22;9654;52.302;8.120;2023-07-20T10:46:43;22.40;99.90
19044;DHT22;9654;52.302;8.120;2023-07-20T10:49:11;22.10;99.90
19044;DHT22;9654;52.302;8.120;2023-07-20T10:51:41;22.10;99.90
19044;DHT22;9654;52.302;8.120;2023-07-20T10:57:30;22.20;99.90
19044;DHT22;9654;52.302;8.120;2023-07-20T11:00:18;21.90;99.90
19044;DHT22;9654;52.302;8.120;2023-07-20T11:02:48;21.80;99.90
19044;DHT22;9654;52.302;8.120;2023-07-20T11:05:39;22.00;99.90
19044;DHT22;9654;52.302;8.120;2023-07-20T11:08:09;22.00;99.90
19044;DHT22;9654;52.302;8.120;2023-07-20T11:10:38;21.90;99.90
19044;DHT22;9654;52.302;8.120;2023-07-20T11:13:22;21.90;99.90
19044;DHT22;9654;52.302;8.120;2023-07-20T11:16:02;22.00;99.90
19044;DHT22;9654;52.302;8.120;2023-07-20T11:18:30;22.00;99.90
19044;DHT22;9654;52.302;8.120;2023-07-20T11:20:59;21.80;99.90
19044;DHT22;9654;52.302;8.120;2023-07-20T11:23:26;21.80;99.90
19044;DHT22;9654;52.302;8.120;2023-07-20T11:25:55;21.80;99.90
19044;DHT22;9654;52.302;8.120;2023-07-20T11:28:22;22.00;99.90
19044;DHT22;9654;52.302;8.120;2023-07-20T11:30:52;22.00;99.90
19044;DHT22;9654;52.302;8.120;2023-07-20T11:33:19;22.00;99.90
19044;DHT22;9654;52.302;8.120;2023-07-20T11:35:46;22.00;99.90
19044;DHT22;9654;52.302;8.120;2023-07-20T11:38:13;21.80;99.90
19044;DHT22;9654;52.302;8.120;2023-07-20T11:40:43;21.70;99.90
19044;DHT22;9654;52.302;8.120;2023-07-20T11:43:12;21.80;99.90
19044;DHT22;9654;52.302;8.120;2023-07-20T11:45:39;21.50;99.90
19044;DHT22;9654;52.302;8.120;2023-07-20T11:48:06;21.30;99.90
19044;DHT22;9654;52.302;8.120;2023-07-20T11:50:38;21.50;99.90
19044;DHT22;9654;52.302;8.120;2023-07-20T11:53:05;21.60;99.90
19044;DHT22;9654;52.302;8.120;2023-07-20T11:55:32;21.80;99.90
19044;DHT22;9654;52.302;8.120;2023-07-20T11:58:03;22.00;99.90
19044;DHT22;9654;52.302;8.120;2023-07-20T12:00:31;22.60;99.90
19044;DHT22;9654;52.302;8.120;2023-07-20T12:02:58;22.90;99.90
19044;DHT22;9654;52.302;8.120;2023-07-20T12:05:25;23.20;99.90
19044;DHT22;9654;52.302;8.120;2023-07-20T12:07:52;23.50;99.90
19044;DHT22;9654;52.302;8.120;2023-07-20T12:10:24;23.80;99.90
19044;DHT22;9654;52.302;8.120;2023-07-20T12:12:52;23.60;99.90
19044;DHT22;9654;52.302;8.120;2023-07-20T12:15:21;23.50;99.90
19044;DHT22;9654;52.302;8.120;2023-07-20T12:17:52;23.40;99.90
19044;DHT22;9654;52.302;8.120;2023-07-20T12:20:29;23.60;99.90
19044;DHT22;9654;52.302;8.120;2023-07-20T12:22:58;23.80;99.90
19044;DHT22;9654;52.302;8.120;2023-07-20T12:25:37;23.80;99.90
19044;DHT22;9654;52.302;8.120;2023-07-20T12:28:05;23.50;99.90
19044;DHT22;9654;52.302;8.120;2023-07-20T12:30:32;23.30;99.90
19044;DHT22;9654;52.302;8.120;2023-07-20T12:33:01;22.80;99.90
19044;DHT22;9654;52.302;8.120;2023-07-20T12:35:29;22.50;99.90
19044;DHT22;9654;52.302;8.120;2023-07-20T12:37:56;22.40;99.90
19044;DHT22;9654;52.302;8.120;2023-07-20T12:40:23;22.30;99.90
19044;DHT22;9654;52.302;8.120;2023-07-20T12:42:50;22.30;99.90
19044;DHT22;9654;52.302;8.120;2023-07-20T12:45:17;22.20;99.90
19044;DHT22;9654;52.302;8.120;2023-07-20T12:47:44;22.30;99.90
19044;DHT22;9654;52.302;8.120;2023-07-20T12:50:12;22.00;99.90
19044;DHT22;9654;52.302;8.120;2023-07-20T12:52:40;22.00;99.90
19044;DHT22;9654;52.302;8.120;2023-07-20T12:55:08;21.80;99.90
19044;DHT22;9654;52.302;8.120;2023-07-20T12:57:35;21.60;99.90
19044;DHT22;9654;52.302;8.120;2023-07-20T13:00:03;21.50;99.90
19044;DHT22;9654;52.302;8.120;2023-07-20T13:02:30;21.50;99.90
19044;DHT22;9654;52.302;8.120;2023-07-20T13:04:57;21.50;99.90
19044;DHT22;9654;52.302;8.120;2023-07-20T13:07:32;21.60;99.90
19044;DHT22;9654;52.302;8.120;2023-07-20T13:09:58;21.60;99.90
19044;DHT22;9654;52.302;8.120;2023-07-20T13:12:26;21.40;99.90
19044;DHT22;9654;52.302;8.120;2023-07-20T13:14:53;21.30;99.90
19044;DHT22;9654;52.302;8.120;2023-07-20T13:17:20;21.40;99.90
19044;DHT22;9654;52.302;8.120;2023-07-20T13:19:47;21.10;99.90
19044;DHT22;9654;52.302;8.120;2023-07-20T13:22:14;21.00;99.90
19044;DHT22;9654;52.302;8.120;2023-07-20T13:24:44;20.70;99.90
19044;DHT22;9654;52.302;8.120;2023-07-20T13:27:11;20.50;99.90
19044;DHT22;9654;52.302;8.120;2023-07-20T13:29:37;20.20;99.90
19044;DHT22;9654;52.302;8.120;2023-07-20T13:32:05;19.70;99.90
19044;DHT22;9654;52.302;8.120;2023-07-20T13:34:32;19.20;99.90
19044;DHT22;9654;52.302;8.120;2023-07-20T13:36:59;18.70;99.90
19044;DHT22;9654;52.302;8.120;2023-07-20T13:39:26;18.30;99.90
19044;DHT22;9654;52.302;8.120;2023-07-20T13:41:54;18.20;99.90
19044;DHT22;9654;52.302;8.120;2023-07-20T13:44:21;18.10;99.90
19044;DHT22;9654;52.302;8.120;2023-07-20T13:46:48;18.10;99.90
19044;DHT22;9654;52.302;8.120;2023-07-20T13:49:15;18.10;99.90
19044;DHT22;9654;52.302;8.120;2023-07-20T13:51:45;18.10;99.90
19044;DHT22;9654;52.302;8.120;2023-07-20T13:54:12;18.10;99.90
19044;DHT22;9654;52.302;8.120;2023-07-20T13:56:39;18.20;99.90
19044;DHT22;9654;52.302;8.120;2023-07-20T13:59:07;18.20;99.90
19044;DHT22;9654;52.302;8.120;2023-07-20T14:01:34;18.30;99.90
19044;DHT22;9654;52.302;8.120;2023-07-20T14:04:01;18.50;99.90
19044;DHT22;9654;52.302;8.120;2023-07-20T14:06:29;18.50;99.90
19044;DHT22;9654;52.302;8.120;2023-07-20T14:08:56;18.70;99.90
19044;DHT22;9654;52.302;8.120;2023-07-20T14:11:23;18.80;99.90
19044;DHT22;9654;52.302;8.120;2023-07-20T14:13:50;19.00;99.90
19044;DHT22;9654;52.302;8.120;2023-07-20T14:16:19;19.10;99.90
19044;DHT22;9654;52.302;8.120;2023-07-20T14:18:46;19.20;99.90
19044;DHT22;9654;52.302;8.120;2023-07-20T14:21:14;19.20;99.90
19044;DHT22;9654;52.302;8.120;2023-07-20T14:23:41;19.30;99.90
19044;DHT22;9654;52.302;8.120;2023-07-20T14:26:08;19.30;99.90
19044;DHT22;9654;52.302;8.120;2023-07-20T14:28:35;19.40;99.90
19044;DHT22;9654;52.302;8.120;2023-07-20T14:31:01;19.60;99.90
19044;DHT22;9654;52.302;8.120;2023-07-20T14:33:29;19.80;99.90
19044;DHT22;9654;52.302;8.120;2023-07-20T14:35:56;20.30;99.90
19044;DHT22;9654;52.302;8.120;2023-07-20T14:38:23;20.90;99.90
19044;DHT22;9654;52.302;8.120;2023-07-20T14:40:50;21.10;99.90
19044;DHT22;9654;52.302;8.120;2023-07-20T14:43:17;21.40;99.90
19044;DHT22;9654;52.302;8.120;2023-07-20T14:45:44;21.50;99.90
19044;DHT22;9654;52.302;8.120;2023-07-20T14:48:11;21.60;99.90
19044;DHT22;9654;52.302;8.120;2023-07-20T14:50:39;21.50;99.90
19044;DHT22;9654;52.302;8.120;2023-07-20T14:53:06;21.40;99.90
19044;DHT22;9654;52.302;8.120;2023-07-20T14:55:33;21.30;99.90
19044;DHT22;9654;52.302;8.120;2023-07-20T14:58:00;21.30;99.90
19044;DHT22;9654;52.302;8.120;2023-07-20T15:00:26;21.30;99.90
19044;DHT22;9654;52.302;8.120;2023-07-20T15:02:53;21.20;99.90
19044;DHT22;9654;52.302;8.120;2023-07-20T15:05:21;21.20;99.90
19044;DHT22;9654;52.302;8.120;2023-07-20T15:07:50;21.40;99.90
19044;DHT22;9654;52.302;8.120;2023-07-20T15:10:17;21.50;99.90
19044;DHT22;9654;52.302;8.120;2023-07-20T15:12:43;21.70;99.90
19044;DHT22;9654;52.302;8.120;2023-07-20T15:15:12;22.10;99.90
19044;DHT22;9654;52.302;8.120;2023-07-20T15:17:40;22.40;99.90
19044;DHT22;9654;52.302;8.120;2023-07-20T15:20:09;22.80;99.90
19044;DHT22;9654;52.302;8.120;2023-07-20T15:22:36;23.40;99.90
19044;DHT22;9654;52.302;8.120;2023-07-20T15:25:06;23.60;99.90
19044;DHT22;9654;52.302;8.120;2023-07-20T15:27:33;23.70;99.90
19044;DHT22;9654;52.302;8.120;2023-07-20T15:30:00;23.70;99.90
19044;DHT22;9654;52.302;8.120;2023-07-20T15:32:27;23.90;99.90
19044;DHT22;9654;52.302;8.120;2023-07-20T15:34:54;24.20;99.90
19044;DHT22;9654;52.302;8.120;2023-07-20T15:37:21;24.00;99.90
19044;DHT22;9654;52.302;8.120;2023-07-20T15:39:48;24.10;99.90
19044;DHT22;9654;52.302;8.120;2023-07-20T15:42:17;24.20;99.90
19044;DHT22;9654;52.302;8.120;2023-07-20T15:44:43;24.30;99.90
19044;DHT22;9654;52.302;8.120;2023-07-20T15:47:10;24.60;99.90
19044;DHT22;9654;52.302;8.120;2023-07-20T15:49:37;24.60;99.90
19044;DHT22;9654;52.302;8.120;2023-07-20T15:52:04;24.70;99.90
19044;DHT22;9654;52.302;8.120;2023-07-20T15:54:31;24.70;99.60
19044;DHT22;9654;52.302;8.120;2023-07-20T15:56:58;24.70;99.90